sensor_id;sensor_type;location;lat;lon;timestamp;P1;durP1;ratioP1;P2;durP2;ratioP2
14300;SDS011;7234;59.306;18.024;2023-12-22T00:00:12;0.67;;;0.40;;
14300;SDS011;7234;59.306;18.024;2023-12-22T00:02:39;1.40;;;0.40;;
14300;SDS011;7234;59.306;18.024;2023-12-22T00:05:06;0.97;;;0.73;;
14300;SDS011;7234;59.306;18.024;2023-12-22T00:07:34;0.40;;;0.40;;
14300;SDS011;7234;59.306;18.024;2023-12-22T00:10:02;0.80;;;0.50;;
14300;SDS011;7234;59.306;18.024;2023-12-22T00:12:28;1.00;;;0.50;;
14300;SDS011;7234;59.306;18.024;2023-12-22T00:14:55;0.77;;;0.60;;
14300;SDS011;7234;59.306;18.024;2023-12-22T00:17:22;0.30;;;0.30;;
14300;SDS011;7234;59.306;18.024;2023-12-22T00:19:49;0.43;;;0.20;;
14300;SDS011;7234;59.306;18.024;2023-12-22T00:22:16;0.40;;;0.40;;
14300;SDS011;7234;59.306;18.024;2023-12-22T00:24:43;1.70;;;0.50;;
14300;SDS011;7234;59.306;18.024;2023-12-22T00:27:11;0.90;;;0.50;;
14300;SDS011;7234;59.306;18.024;2023-12-22T00:29:38;0.53;;;0.50;;
14300;SDS011;7234;59.306;18.024;2023-12-22T00:32:05;1.67;;;0.40;;
14300;SDS011;7234;59.306;18.024;2023-12-22T00:34:34;0.30;;;0.30;;
14300;SDS011;7234;59.306;18.024;2023-12-22T00:37:01;0.97;;;0.30;;
14300;SDS011;7234;59.306;18.024;2023-12-22T00:39:29;0.67;;;0.30;;
14300;SDS011;7234;59.306;18.024;2023-12-22T00:41:57;0.80;;;0.70;;
14300;SDS011;7234;59.306;18.024;2023-12-22T00:44:25;0.70;;;0.50;;
14300;SDS011;7234;59.306;18.024;2023-12-22T00:46:54;0.43;;;0.40;;
14300;SDS011;7234;59.306;18.024;2023-12-22T00:49:21;0.50;;;0.50;;
14300;SDS011;7234;59.306;18.024;2023-12-22T00:51:48;1.53;;;0.50;;
14300;SDS011;7234;59.306;18.024;2023-12-22T00:54:15;1.47;;;0.40;;
14300;SDS011;7234;59.306;18.024;2023-12-22T00:56:42;2.00;;;0.50;;
14300;SDS011;7234;59.306;18.024;2023-12-22T00:59:09;1.07;;;0.40;;
14300;SDS011;7234;59.306;18.024;2023-12-22T01:01:37;1.80;;;0.70;;
14300;SDS011;7234;59.306;18.024;2023-12-22T01:04:04;0.50;;;0.50;;
14300;SDS011;7234;59.306;18.024;2023-12-22T01:06:31;0.57;;;0.40;;
14300;SDS011;7234;59.306;18.024;2023-12-22T01:09:02;0.90;;;0.60;;
14300;SDS011;7234;59.306;18.024;2023-12-22T01:11:29;0.60;;;0.60;;
14300;SDS011;7234;59.306;18.024;2023-12-22T01:13:56;2.00;;;0.50;;
14300;SDS011;7234;59.306;18.024;2023-12-22T01:16:23;0.87;;;0.43;;
14300;SDS011;7234;59.306;18.024;2023-12-22T01:18:52;1.80;;;0.60;;
14300;SDS011;7234;59.306;18.024;2023-12-22T01:21:19;0.57;;;0.40;;
14300;SDS011;7234;59.306;18.024;2023-12-22T01:23:46;0.40;;;0.40;;
14300;SDS011;7234;59.306;18.024;2023-12-22T01:26:13;1.13;;;0.60;;
14300;SDS011;7234;59.306;18.024;2023-12-22T01:28:39;1.90;;;0.90;;
14300;SDS011;7234;59.306;18.024;2023-12-22T01:31:07;0.60;;;0.60;;
14300;SDS011;7234;59.306;18.024;2023-12-22T01:33:34;0.87;;;0.60;;
14300;SDS011;7234;59.306;18.024;2023-12-22T01:36:02;0.50;;;0.30;;
14300;SDS011;7234;59.306;18.024;2023-12-22T01:38:30;2.60;;;0.80;;
14300;SDS011;7234;59.306;18.024;2023-12-22T01:40:57;2.10;;;0.80;;
14300;SDS011;7234;59.306;18.024;2023-12-22T01:43:24;0.57;;;0.50;;
14300;SDS011;7234;59.306;18.024;2023-12-22T01:45:52;1.07;;;0.53;;
14300;SDS011;7234;59.306;18.024;2023-12-22T01:48:22;2.00;;;0.60;;
14300;SDS011;7234;59.306;18.024;2023-12-22T01:50:50;1.00;;;0.70;;
14300;SDS011;7234;59.306;18.024;2023-12-22T01:53:20;1.00;;;0.50;;
14300;SDS011;7234;59.306;18.024;2023-12-22T01:55:48;0.83;;;0.60;;
14300;SDS011;7234;59.306;18.024;2023-12-22T01:58:16;1.60;;;0.83;;
14300;SDS011;7234;59.306;18.024;2023-12-22T02:00:44;1.93;;;0.70;;
14300;SDS011;7234;59.306;18.024;2023-12-22T02:03:11;1.10;;;0.50;;
14300;SDS011;7234;59.306;18.024;2023-12-22T02:05:40;1.03;;;0.50;;
14300;SDS011;7234;59.306;18.024;2023-12-22T02:08:07;1.23;;;0.60;;
14300;SDS011;7234;59.306;18.024;2023-12-22T02:10:36;1.17;;;0.70;;
14300;SDS011;7234;59.306;18.024;2023-12-22T02:13:03;1.80;;;0.80;;
14300;SDS011;7234;59.306;18.024;2023-12-22T02:15:30;0.53;;;0.43;;
14300;SDS011;7234;59.306;18.024;2023-12-22T02:17:59;2.37;;;0.57;;
14300;SDS011;7234;59.306;18.024;2023-12-22T02:20:31;0.50;;;0.50;;
14300;SDS011;7234;59.306;18.024;2023-12-22T02:23:00;1.03;;;0.47;;
14300;SDS011;7234;59.306;18.024;2023-12-22T02:25:28;0.73;;;0.50;;
14300;SDS011;7234;59.306;18.024;2023-12-22T02:27:57;1.37;;;0.50;;
14300;SDS011;7234;59.306;18.024;2023-12-22T02:30:31;0.43;;;0.30;;
14300;SDS011;7234;59.306;18.024;2023-12-22T02:33:04;1.90;;;0.40;;
14300;SDS011;7234;59.306;18.024;2023-12-22T02:35:33;0.90;;;0.70;;
14300;SDS011;7234;59.306;18.024;2023-12-22T02:38:04;0.67;;;0.50;;
14300;SDS011;7234;59.306;18.024;2023-12-22T02:40:33;3.23;;;0.90;;
14300;SDS011;7234;59.306;18.024;2023-12-22T02:43:01;1.60;;;0.53;;
14300;SDS011;7234;59.306;18.024;2023-12-22T02:45:28;0.67;;;0.57;;
14300;SDS011;7234;59.306;18.024;2023-12-22T02:47:57;0.80;;;0.60;;
14300;SDS011;7234;59.306;18.024;2023-12-22T02:50:24;0.57;;;0.53;;
14300;SDS011;7234;59.306;18.024;2023-12-22T02:52:51;2.07;;;0.40;;
14300;SDS011;7234;59.306;18.024;2023-12-22T02:55:19;1.17;;;0.50;;
14300;SDS011;7234;59.306;18.024;2023-12-22T02:57:46;2.00;;;0.67;;
14300;SDS011;7234;59.306;18.024;2023-12-22T03:00:13;0.60;;;0.50;;
14300;SDS011;7234;59.306;18.024;2023-12-22T03:02:41;0.73;;;0.40;;
14300;SDS011;7234;59.306;18.024;2023-12-22T03:05:08;1.30;;;0.60;;
14300;SDS011;7234;59.306;18.024;2023-12-22T03:07:35;0.70;;;0.50;;
14300;SDS011;7234;59.306;18.024;2023-12-22T03:10:01;1.10;;;0.57;;
14300;SDS011;7234;59.306;18.024;2023-12-22T03:12:30;0.50;;;0.50;;
14300;SDS011;7234;59.306;18.024;2023-12-22T03:14:57;0.60;;;0.40;;
14300;SDS011;7234;59.306;18.024;2023-12-22T03:17:24;1.80;;;0.53;;
14300;SDS011;7234;59.306;18.024;2023-12-22T03:19:51;0.63;;;0.43;;
14300;SDS011;7234;59.306;18.024;2023-12-22T03:22:18;0.47;;;0.40;;
14300;SDS011;7234;59.306;18.024;2023-12-22T03:24:45;1.33;;;0.60;;
14300;SDS011;7234;59.306;18.024;2023-12-22T03:27:12;1.00;;;0.80;;
14300;SDS011;7234;59.306;18.024;2023-12-22T03:29:42;0.50;;;0.50;;
14300;SDS011;7234;59.306;18.024;2023-12-22T03:32:09;0.60;;;0.50;;
14300;SDS011;7234;59.306;18.024;2023-12-22T03:34:36;0.93;;;0.50;;
14300;SDS011;7234;59.306;18.024;2023-12-22T03:37:03;0.93;;;0.40;;
14300;SDS011;7234;59.306;18.024;2023-12-22T03:39:30;0.90;;;0.50;;
14300;SDS011;7234;59.306;18.024;2023-12-22T03:41:57;0.63;;;0.40;;
14300;SDS011;7234;59.306;18.024;2023-12-22T03:44:24;0.63;;;0.50;;
14300;SDS011;7234;59.306;18.024;2023-12-22T03:46:52;1.73;;;1.03;;
14300;SDS011;7234;59.306;18.024;2023-12-22T03:49:19;0.67;;;0.50;;
14300;SDS011;7234;59.306;18.024;2023-12-22T03:51:46;0.30;;;0.30;;
14300;SDS011;7234;59.306;18.024;2023-12-22T03:54:13;1.37;;;0.50;;
14300;SDS011;7234;59.306;18.024;2023-12-22T03:56:42;0.57;;;0.50;;
14300;SDS011;7234;59.306;18.024;2023-12-22T03:59:09;0.70;;;0.40;;
14300;SDS011;7234;59.306;18.024;2023-12-22T04:01:36;0.63;;;0.60;;
14300;SDS011;7234;59.306;18.024;2023-12-22T04:04:04;0.87;;;0.60;;
14300;SDS011;7234;59.306;18.024;2023-12-22T04:06:31;1.40;;;0.90;;
14300;SDS011;7234;59.306;18.024;2023-12-22T04:09:00;0.83;;;0.40;;
14300;SDS011;7234;59.306;18.024;2023-12-22T04:11:27;0.30;;;0.30;;
14300;SDS011;7234;59.306;18.024;2023-12-22T04:13:54;2.13;;;0.60;;
14300;SDS011;7234;59.306;18.024;2023-12-22T04:16:21;1.17;;;0.63;;
14300;SDS011;7234;59.306;18.024;2023-12-22T04:18:48;2.63;;;0.50;;
14300;SDS011;7234;59.306;18.024;2023-12-22T04:21:16;1.03;;;0.60;;
14300;SDS011;7234;59.306;18.024;2023-12-22T04:23:43;2.00;;;0.70;;
14300;SDS011;7234;59.306;18.024;2023-12-22T04:26:10;0.57;;;0.40;;
14300;SDS011;7234;59.306;18.024;2023-12-22T04:28:37;0.40;;;0.40;;
14300;SDS011;7234;59.306;18.024;2023-12-22T04:31:04;1.80;;;0.50;;
14300;SDS011;7234;59.306;18.024;2023-12-22T04:33:32;0.40;;;0.40;;
14300;SDS011;7234;59.306;18.024;2023-12-22T04:35:59;0.30;;;0.30;;
14300;SDS011;7234;59.306;18.024;2023-12-22T04:38:28;0.30;;;0.30;;
14300;SDS011;7234;59.306;18.024;2023-12-22T04:40:55;0.40;;;0.40;;
14300;SDS011;7234;59.306;18.024;2023-12-22T04:43:22;2.23;;;0.40;;
14300;SDS011;7234;59.306;18.024;2023-12-22T04:45:49;0.23;;;0.23;;
14300;SDS011;7234;59.306;18.024;2023-12-22T04:48:19;1.00;;;0.40;;
14300;SDS011;7234;59.306;18.024;2023-12-22T04:50:45;0.40;;;0.40;;
14300;SDS011;7234;59.306;18.024;2023-12-22T04:53:12;0.30;;;0.30;;
14300;SDS011;7234;59.306;18.024;2023-12-22T04:55:41;0.30;;;0.30;;
14300;SDS011;7234;59.306;18.024;2023-12-22T04:58:08;0.30;;;0.30;;
14300;SDS011;7234;59.306;18.024;2023-12-22T05:00:35;0.20;;;0.20;;
14300;SDS011;7234;59.306;18.024;2023-12-22T05:03:02;0.30;;;0.30;;
14300;SDS011;7234;59.306;18.024;2023-12-22T05:05:30;0.87;;;0.40;;
14300;SDS011;7234;59.306;18.024;2023-12-22T05:07:57;0.20;;;0.20;;
14300;SDS011;7234;59.306;18.024;2023-12-22T05:10:24;0.20;;;0.20;;
14300;SDS011;7234;59.306;18.024;2023-12-22T05:12:52;0.33;;;0.30;;
14300;SDS011;7234;59.306;18.024;2023-12-22T05:15:19;0.30;;;0.30;;
14300;SDS011;7234;59.306;18.024;2023-12-22T05:17:46;0.20;;;0.20;;
14300;SDS011;7234;59.306;18.024;2023-12-22T05:20:13;0.30;;;0.30;;
14300;SDS011;7234;59.306;18.024;2023-12-22T05:22:40;0.20;;;0.20;;
14300;SDS011;7234;59.306;18.024;2023-12-22T05:25:07;0.27;;;0.27;;
14300;SDS011;7234;59.306;18.024;2023-12-22T05:27:35;0.30;;;0.30;;
14300;SDS011;7234;59.306;18.024;2023-12-22T05:30:04;0.57;;;0.57;;
14300;SDS011;7234;59.306;18.024;2023-12-22T05:32:33;0.33;;;0.33;;
14300;SDS011;7234;59.306;18.024;2023-12-22T05:35:00;0.20;;;0.20;;
14300;SDS011;7234;59.306;18.024;2023-12-22T05:37:27;0.20;;;0.20;;
14300;SDS011;7234;59.306;18.024;2023-12-22T05:39:54;0.13;;;0.13;;
14300;SDS011;7234;59.306;18.024;2023-12-22T05:42:21;0.30;;;0.30;;
14300;SDS011;7234;59.306;18.024;2023-12-22T05:44:48;0.40;;;0.40;;
14300;SDS011;7234;59.306;18.024;2023-12-22T05:47:17;0.43;;;0.43;;
14300;SDS011;7234;59.306;18.024;2023-12-22T05:49:45;0.40;;;0.40;;
14300;SDS011;7234;59.306;18.024;2023-12-22T05:52:12;0.50;;;0.40;;
14300;SDS011;7234;59.306;18.024;2023-12-22T05:54:39;0.40;;;0.40;;
14300;SDS011;7234;59.306;18.024;2023-12-22T05:57:06;0.70;;;0.40;;
14300;SDS011;7234;59.306;18.024;2023-12-22T05:59:33;0.63;;;0.50;;
14300;SDS011;7234;59.306;18.024;2023-12-22T06:02:00;0.70;;;0.60;;
14300;SDS011;7234;59.306;18.024;2023-12-22T06:04:29;0.80;;;0.60;;
14300;SDS011;7234;59.306;18.024;2023-12-22T06:06:59;0.50;;;0.40;;
14300;SDS011;7234;59.306;18.024;2023-12-22T06:09:27;0.30;;;0.30;;
14300;SDS011;7234;59.306;18.024;2023-12-22T06:11:54;0.40;;;0.40;;
14300;SDS011;7234;59.306;18.024;2023-12-22T06:14:21;0.80;;;0.50;;
14300;SDS011;7234;59.306;18.024;2023-12-22T06:16:48;0.70;;;0.50;;
14300;SDS011;7234;59.306;18.024;2023-12-22T06:19:15;0.43;;;0.43;;
14300;SDS011;7234;59.306;18.024;2023-12-22T06:21:44;1.43;;;0.60;;
14300;SDS011;7234;59.306;18.024;2023-12-22T06:24:11;1.80;;;0.87;;
14300;SDS011;7234;59.306;18.024;2023-12-22T06:26:38;0.50;;;0.50;;
14300;SDS011;7234;59.306;18.024;2023-12-22T06:29:05;0.70;;;0.60;;
14300;SDS011;7234;59.306;18.024;2023-12-22T06:31:32;0.60;;;0.50;;
14300;SDS011;7234;59.306;18.024;2023-12-22T06:33:59;1.27;;;0.90;;
14300;SDS011;7234;59.306;18.024;2023-12-22T06:36:27;1.70;;;0.70;;
14300;SDS011;7234;59.306;18.024;2023-12-22T06:38:56;0.70;;;0.50;;
14300;SDS011;7234;59.306;18.024;2023-12-22T06:41:24;1.03;;;0.70;;
14300;SDS011;7234;59.306;18.024;2023-12-22T06:43:52;0.70;;;0.47;;
14300;SDS011;7234;59.306;18.024;2023-12-22T06:46:20;1.10;;;0.70;;
14300;SDS011;7234;59.306;18.024;2023-12-22T06:48:48;1.00;;;0.77;;
14300;SDS011;7234;59.306;18.024;2023-12-22T06:51:18;1.33;;;0.90;;
14300;SDS011;7234;59.306;18.024;2023-12-22T06:53:45;0.70;;;0.70;;
14300;SDS011;7234;59.306;18.024;2023-12-22T06:56:18;1.33;;;0.80;;
14300;SDS011;7234;59.306;18.024;2023-12-22T06:58:46;0.80;;;0.77;;
14300;SDS011;7234;59.306;18.024;2023-12-22T07:01:17;2.47;;;1.00;;
14300;SDS011;7234;59.306;18.024;2023-12-22T07:03:46;0.57;;;0.50;;
14300;SDS011;7234;59.306;18.024;2023-12-22T07:06:13;2.40;;;0.67;;
14300;SDS011;7234;59.306;18.024;2023-12-22T07:08:40;1.17;;;0.70;;
14300;SDS011;7234;59.306;18.024;2023-12-22T07:11:07;1.07;;;0.90;;
14300;SDS011;7234;59.306;18.024;2023-12-22T07:13:36;0.80;;;0.70;;
14300;SDS011;7234;59.306;18.024;2023-12-22T07:16:03;0.40;;;0.40;;
14300;SDS011;7234;59.306;18.024;2023-12-22T07:18:30;1.07;;;0.57;;
14300;SDS011;7234;59.306;18.024;2023-12-22T07:20:57;1.83;;;0.87;;
14300;SDS011;7234;59.306;18.024;2023-12-22T07:23:24;1.57;;;0.87;;
14300;SDS011;7234;59.306;18.024;2023-12-22T07:25:51;0.50;;;0.50;;
14300;SDS011;7234;59.306;18.024;2023-12-22T07:28:18;1.17;;;0.73;;
14300;SDS011;7234;59.306;18.024;2023-12-22T07:30:46;1.27;;;0.80;;
14300;SDS011;7234;59.306;18.024;2023-12-22T07:33:13;1.37;;;0.70;;
14300;SDS011;7234;59.306;18.024;2023-12-22T07:35:40;0.80;;;0.70;;
14300;SDS011;7234;59.306;18.024;2023-12-22T07:38:07;1.10;;;0.60;;
14300;SDS011;7234;59.306;18.024;2023-12-22T07:40:34;1.50;;;0.60;;
14300;SDS011;7234;59.306;18.024;2023-12-22T07:43:01;0.67;;;0.63;;
14300;SDS011;7234;59.306;18.024;2023-12-22T07:45:29;1.27;;;0.70;;
14300;SDS011;7234;59.306;18.024;2023-12-22T07:47:59;1.03;;;0.90;;
14300;SDS011;7234;59.306;18.024;2023-12-22T07:50:26;1.57;;;1.30;;
14300;SDS011;7234;59.306;18.024;2023-12-22T07:52:53;1.10;;;0.90;;
14300;SDS011;7234;59.306;18.024;2023-12-22T07:55:20;0.93;;;0.83;;
14300;SDS011;7234;59.306;18.024;2023-12-22T07:57:47;1.93;;;0.70;;
14300;SDS011;7234;59.306;18.024;2023-12-22T08:00:14;2.70;;;0.70;;
14300;SDS011;7234;59.306;18.024;2023-12-22T08:02:42;0.63;;;0.60;;
14300;SDS011;7234;59.306;18.024;2023-12-22T08:05:10;1.63;;;0.60;;
14300;SDS011;7234;59.306;18.024;2023-12-22T08:07:37;0.97;;;0.87;;
14300;SDS011;7234;59.306;18.024;2023-12-22T08:10:05;1.10;;;0.80;;
14300;SDS011;7234;59.306;18.024;2023-12-22T08:12:32;1.10;;;0.90;;
14300;SDS011;7234;59.306;18.024;2023-12-22T08:15:00;1.10;;;1.00;;
14300;SDS011;7234;59.306;18.024;2023-12-22T08:17:27;1.10;;;1.00;;
14300;SDS011;7234;59.306;18.024;2023-12-22T08:19:55;2.53;;;0.80;;
14300;SDS011;7234;59.306;18.024;2023-12-22T08:22:23;1.15;;;0.93;;
14300;SDS011;7234;59.306;18.024;2023-12-22T08:24:50;1.37;;;1.03;;
14300;SDS011;7234;59.306;18.024;2023-12-22T08:27:17;1.50;;;1.10;;
14300;SDS011;7234;59.306;18.024;2023-12-22T08:29:44;1.35;;;0.93;;
14300;SDS011;7234;59.306;18.024;2023-12-22T08:32:11;1.10;;;1.00;;
14300;SDS011;7234;59.306;18.024;2023-12-22T08:34:39;1.05;;;0.93;;
14300;SDS011;7234;59.306;18.024;2023-12-22T08:37:06;1.13;;;0.93;;
14300;SDS011;7234;59.306;18.024;2023-12-22T08:39:34;1.20;;;0.93;;
14300;SDS011;7234;59.306;18.024;2023-12-22T08:42:01;1.38;;;1.00;;
14300;SDS011;7234;59.306;18.024;2023-12-22T08:44:29;1.10;;;1.00;;
14300;SDS011;7234;59.306;18.024;2023-12-22T08:46:56;0.80;;;0.80;;
14300;SDS011;7234;59.306;18.024;2023-12-22T08:49:23;2.45;;;1.35;;
14300;SDS011;7234;59.306;18.024;2023-12-22T08:51:50;3.15;;;2.40;;
14300;SDS011;7234;59.306;18.024;2023-12-22T08:54:17;4.45;;;1.70;;
14300;SDS011;7234;59.306;18.024;2023-12-22T08:56:45;1.40;;;1.10;;
14300;SDS011;7234;59.306;18.024;2023-12-22T08:59:12;1.35;;;1.05;;
14300;SDS011;7234;59.306;18.024;2023-12-22T09:01:39;1.15;;;0.93;;
14300;SDS011;7234;59.306;18.024;2023-12-22T09:04:07;0.80;;;0.80;;
14300;SDS011;7234;59.306;18.024;2023-12-22T09:06:36;1.30;;;0.93;;
14300;SDS011;7234;59.306;18.024;2023-12-22T09:09:03;1.30;;;1.00;;
14300;SDS011;7234;59.306;18.024;2023-12-22T09:11:31;1.08;;;0.88;;
14300;SDS011;7234;59.306;18.024;2023-12-22T09:13:59;1.08;;;0.90;;
14300;SDS011;7234;59.306;18.024;2023-12-22T09:16:27;2.75;;;1.15;;
14300;SDS011;7234;59.306;18.024;2023-12-22T09:18:54;1.10;;;0.90;;
14300;SDS011;7234;59.306;18.024;2023-12-22T09:21:21;1.60;;;1.10;;
14300;SDS011;7234;59.306;18.024;2023-12-22T09:23:48;1.25;;;0.90;;
14300;SDS011;7234;59.306;18.024;2023-12-22T09:26:15;1.83;;;1.20;;
14300;SDS011;7234;59.306;18.024;2023-12-22T09:28:43;1.23;;;1.13;;
14300;SDS011;7234;59.306;18.024;2023-12-22T09:31:12;1.40;;;1.30;;
14300;SDS011;7234;59.306;18.024;2023-12-22T09:33:39;1.88;;;1.27;;
14300;SDS011;7234;59.306;18.024;2023-12-22T09:36:07;1.42;;;1.10;;
14300;SDS011;7234;59.306;18.024;2023-12-22T09:38:35;1.10;;;1.00;;
14300;SDS011;7234;59.306;18.024;2023-12-22T09:41:02;1.67;;;1.15;;
14300;SDS011;7234;59.306;18.024;2023-12-22T09:43:29;2.47;;;1.40;;
14300;SDS011;7234;59.306;18.024;2023-12-22T09:46:01;3.10;;;1.75;;
14300;SDS011;7234;59.306;18.024;2023-12-22T09:48:30;1.83;;;1.27;;
14300;SDS011;7234;59.306;18.024;2023-12-22T09:51:01;1.30;;;1.10;;
14300;SDS011;7234;59.306;18.024;2023-12-22T09:53:29;2.00;;;1.30;;
14300;SDS011;7234;59.306;18.024;2023-12-22T09:55:57;1.53;;;1.33;;
14300;SDS011;7234;59.306;18.024;2023-12-22T09:58:25;1.37;;;1.20;;
14300;SDS011;7234;59.306;18.024;2023-12-22T10:00:52;2.27;;;1.00;;
14300;SDS011;7234;59.306;18.024;2023-12-22T10:03:21;1.53;;;1.23;;
14300;SDS011;7234;59.306;18.024;2023-12-22T10:05:53;0.97;;;0.87;;
14300;SDS011;7234;59.306;18.024;2023-12-22T10:08:20;1.37;;;1.10;;
14300;SDS011;7234;59.306;18.024;2023-12-22T10:10:49;1.07;;;0.90;;
14300;SDS011;7234;59.306;18.024;2023-12-22T10:13:17;1.47;;;1.00;;
14300;SDS011;7234;59.306;18.024;2023-12-22T10:15:45;2.40;;;1.20;;
14300;SDS011;7234;59.306;18.024;2023-12-22T10:18:13;1.63;;;1.30;;
14300;SDS011;7234;59.306;18.024;2023-12-22T10:20:41;1.50;;;1.30;;
14300;SDS011;7234;59.306;18.024;2023-12-22T10:23:10;1.50;;;1.20;;
14300;SDS011;7234;59.306;18.024;2023-12-22T10:25:37;1.80;;;1.40;;
14300;SDS011;7234;59.306;18.024;2023-12-22T10:28:09;2.30;;;1.40;;
14300;SDS011;7234;59.306;18.024;2023-12-22T10:30:37;2.23;;;1.40;;
14300;SDS011;7234;59.306;18.024;2023-12-22T10:33:05;1.85;;;1.30;;
14300;SDS011;7234;59.306;18.024;2023-12-22T10:35:33;1.60;;;1.23;;
14300;SDS011;7234;59.306;18.024;2023-12-22T10:38:00;2.00;;;1.45;;
14300;SDS011;7234;59.306;18.024;2023-12-22T10:40:28;1.40;;;1.20;;
14300;SDS011;7234;59.306;18.024;2023-12-22T10:42:56;1.80;;;1.53;;
14300;SDS011;7234;59.306;18.024;2023-12-22T10:45:24;2.07;;;1.50;;
14300;SDS011;7234;59.306;18.024;2023-12-22T10:47:51;2.60;;;1.90;;
14300;SDS011;7234;59.306;18.024;2023-12-22T10:50:18;1.98;;;1.40;;
14300;SDS011;7234;59.306;18.024;2023-12-22T10:52:48;1.97;;;1.50;;
14300;SDS011;7234;59.306;18.024;2023-12-22T10:55:16;3.10;;;1.30;;
14300;SDS011;7234;59.306;18.024;2023-12-22T10:57:45;2.33;;;1.30;;
14300;SDS011;7234;59.306;18.024;2023-12-22T11:00:13;3.10;;;2.20;;
14300;SDS011;7234;59.306;18.024;2023-12-22T11:02:42;2.40;;;1.50;;
14300;SDS011;7234;59.306;18.024;2023-12-22T11:05:13;2.50;;;1.37;;
14300;SDS011;7234;59.306;18.024;2023-12-22T11:07:43;2.40;;;1.53;;
14300;SDS011;7234;59.306;18.024;2023-12-22T11:10:15;1.87;;;1.40;;
14300;SDS011;7234;59.306;18.024;2023-12-22T11:12:47;3.23;;;1.77;;
14300;SDS011;7234;59.306;18.024;2023-12-22T11:15:15;2.50;;;1.57;;
14300;SDS011;7234;59.306;18.024;2023-12-22T11:17:43;2.00;;;1.40;;
14300;SDS011;7234;59.306;18.024;2023-12-22T11:20:12;2.63;;;1.87;;
14300;SDS011;7234;59.306;18.024;2023-12-22T11:22:40;2.70;;;1.77;;
14300;SDS011;7234;59.306;18.024;2023-12-22T11:25:08;2.73;;;1.57;;
14300;SDS011;7234;59.306;18.024;2023-12-22T11:27:36;3.67;;;2.77;;
14300;SDS011;7234;59.306;18.024;2023-12-22T11:30:06;2.40;;;1.57;;
14300;SDS011;7234;59.306;18.024;2023-12-22T11:32:34;2.83;;;1.97;;
14300;SDS011;7234;59.306;18.024;2023-12-22T11:35:01;1.97;;;1.60;;
14300;SDS011;7234;59.306;18.024;2023-12-22T11:37:28;2.47;;;1.50;;
14300;SDS011;7234;59.306;18.024;2023-12-22T11:39:58;1.80;;;1.60;;
14300;SDS011;7234;59.306;18.024;2023-12-22T11:42:26;2.30;;;1.90;;
14300;SDS011;7234;59.306;18.024;2023-12-22T11:44:57;2.00;;;1.40;;
14300;SDS011;7234;59.306;18.024;2023-12-22T11:47:25;2.53;;;1.55;;
14300;SDS011;7234;59.306;18.024;2023-12-22T11:49:53;2.28;;;1.55;;
14300;SDS011;7234;59.306;18.024;2023-12-22T11:52:25;2.13;;;1.60;;
14300;SDS011;7234;59.306;18.024;2023-12-22T11:54:53;3.30;;;1.83;;
14300;SDS011;7234;59.306;18.024;2023-12-22T11:57:31;3.05;;;2.10;;
14300;SDS011;7234;59.306;18.024;2023-12-22T12:00:01;2.53;;;1.63;;
14300;SDS011;7234;59.306;18.024;2023-12-22T12:02:32;2.67;;;1.70;;
14300;SDS011;7234;59.306;18.024;2023-12-22T12:05:00;1.90;;;1.73;;
14300;SDS011;7234;59.306;18.024;2023-12-22T12:07:37;2.47;;;1.80;;
14300;SDS011;7234;59.306;18.024;2023-12-22T12:10:06;3.10;;;2.20;;
14300;SDS011;7234;59.306;18.024;2023-12-22T12:12:34;3.53;;;2.20;;
14300;SDS011;7234;59.306;18.024;2023-12-22T12:15:10;2.72;;;1.95;;
14300;SDS011;7234;59.306;18.024;2023-12-22T12:17:44;2.33;;;1.98;;
14300;SDS011;7234;59.306;18.024;2023-12-22T12:20:11;4.03;;;1.80;;
14300;SDS011;7234;59.306;18.024;2023-12-22T12:22:38;3.47;;;2.20;;
14300;SDS011;7234;59.306;18.024;2023-12-22T12:25:09;2.22;;;1.58;;
14300;SDS011;7234;59.306;18.024;2023-12-22T12:27:37;2.50;;;1.90;;
14300;SDS011;7234;59.306;18.024;2023-12-22T12:30:11;2.45;;;1.70;;
14300;SDS011;7234;59.306;18.024;2023-12-22T12:32:44;2.40;;;1.83;;
14300;SDS011;7234;59.306;18.024;2023-12-22T12:35:14;2.37;;;1.70;;
14300;SDS011;7234;59.306;18.024;2023-12-22T12:37:44;1.90;;;1.70;;
14300;SDS011;7234;59.306;18.024;2023-12-22T12:40:11;1.67;;;1.55;;
14300;SDS011;7234;59.306;18.024;2023-12-22T12:42:38;2.95;;;2.08;;
14300;SDS011;7234;59.306;18.024;2023-12-22T12:45:06;2.83;;;2.03;;
14300;SDS011;7234;59.306;18.024;2023-12-22T12:47:34;3.53;;;2.00;;
14300;SDS011;7234;59.306;18.024;2023-12-22T12:50:03;2.08;;;1.60;;
14300;SDS011;7234;59.306;18.024;2023-12-22T12:52:30;2.80;;;1.87;;
14300;SDS011;7234;59.306;18.024;2023-12-22T12:54:59;2.92;;;1.85;;
14300;SDS011;7234;59.306;18.024;2023-12-22T12:57:26;3.85;;;1.90;;
14300;SDS011;7234;59.306;18.024;2023-12-22T12:59:53;1.98;;;1.55;;
14300;SDS011;7234;59.306;18.024;2023-12-22T13:02:20;2.53;;;1.77;;
14300;SDS011;7234;59.306;18.024;2023-12-22T13:04:48;3.72;;;1.67;;
14300;SDS011;7234;59.306;18.024;2023-12-22T13:07:24;2.42;;;1.70;;
14300;SDS011;7234;59.306;18.024;2023-12-22T13:09:51;2.00;;;1.50;;
14300;SDS011;7234;59.306;18.024;2023-12-22T13:12:21;2.40;;;1.63;;
14300;SDS011;7234;59.306;18.024;2023-12-22T13:14:49;3.42;;;1.63;;
14300;SDS011;7234;59.306;18.024;2023-12-22T13:17:16;2.50;;;1.55;;
14300;SDS011;7234;59.306;18.024;2023-12-22T13:19:43;2.15;;;1.60;;
14300;SDS011;7234;59.306;18.024;2023-12-22T13:22:12;2.08;;;1.65;;
14300;SDS011;7234;59.306;18.024;2023-12-22T13:24:40;1.63;;;1.17;;
14300;SDS011;7234;59.306;18.024;2023-12-22T13:27:07;2.45;;;1.73;;
14300;SDS011;7234;59.306;18.024;2023-12-22T13:29:44;1.83;;;1.30;;
14300;SDS011;7234;59.306;18.024;2023-12-22T13:32:17;2.00;;;1.52;;
14300;SDS011;7234;59.306;18.024;2023-12-22T13:34:50;1.65;;;1.30;;
14300;SDS011;7234;59.306;18.024;2023-12-22T13:37:18;3.30;;;1.55;;
14300;SDS011;7234;59.306;18.024;2023-12-22T13:39:47;2.15;;;1.77;;
14300;SDS011;7234;59.306;18.024;2023-12-22T13:42:16;2.10;;;1.50;;
14300;SDS011;7234;59.306;18.024;2023-12-22T13:44:44;1.27;;;1.10;;
14300;SDS011;7234;59.306;18.024;2023-12-22T13:47:14;2.05;;;1.65;;
14300;SDS011;7234;59.306;18.024;2023-12-22T13:49:42;1.70;;;1.45;;
14300;SDS011;7234;59.306;18.024;2023-12-22T13:52:23;2.22;;;1.50;;
14300;SDS011;7234;59.306;18.024;2023-12-22T13:54:53;1.63;;;1.30;;
14300;SDS011;7234;59.306;18.024;2023-12-22T13:57:22;2.40;;;1.50;;
14300;SDS011;7234;59.306;18.024;2023-12-22T13:59:49;4.40;;;1.60;;
14300;SDS011;7234;59.306;18.024;2023-12-22T14:02:21;3.03;;;1.70;;
14300;SDS011;7234;59.306;18.024;2023-12-22T14:04:49;1.95;;;1.45;;
14300;SDS011;7234;59.306;18.024;2023-12-22T14:07:16;2.00;;;1.40;;
14300;SDS011;7234;59.306;18.024;2023-12-22T14:09:43;1.80;;;1.40;;
14300;SDS011;7234;59.306;18.024;2023-12-22T14:12:11;2.10;;;1.20;;
14300;SDS011;7234;59.306;18.024;2023-12-22T14:14:38;2.13;;;1.43;;
14300;SDS011;7234;59.306;18.024;2023-12-22T14:17:05;1.90;;;1.17;;
14300;SDS011;7234;59.306;18.024;2023-12-22T14:19:32;3.20;;;2.33;;
14300;SDS011;7234;59.306;18.024;2023-12-22T14:21:59;2.70;;;1.90;;
14300;SDS011;7234;59.306;18.024;2023-12-22T14:24:26;2.07;;;1.57;;
14300;SDS011;7234;59.306;18.024;2023-12-22T14:26:53;2.17;;;1.30;;
14300;SDS011;7234;59.306;18.024;2023-12-22T14:29:22;1.80;;;1.47;;
14300;SDS011;7234;59.306;18.024;2023-12-22T14:31:50;1.67;;;1.33;;
14300;SDS011;7234;59.306;18.024;2023-12-22T14:34:17;1.90;;;1.50;;
14300;SDS011;7234;59.306;18.024;2023-12-22T14:36:44;1.90;;;1.35;;
14300;SDS011;7234;59.306;18.024;2023-12-22T14:39:11;1.48;;;1.25;;
14300;SDS011;7234;59.306;18.024;2023-12-22T14:41:38;2.05;;;1.50;;
14300;SDS011;7234;59.306;18.024;2023-12-22T14:44:07;3.03;;;1.80;;
14300;SDS011;7234;59.306;18.024;2023-12-22T14:46:38;2.00;;;1.40;;
14300;SDS011;7234;59.306;18.024;2023-12-22T14:49:05;1.97;;;1.33;;
14300;SDS011;7234;59.306;18.024;2023-12-22T14:51:35;3.03;;;1.63;;